sensor_id;sensor_type;location;lat;lon;timestamp;pressure;altitude;pressure_sealevel;temperature;humidity
29215;BME280;16252;49.816;7.964;2023-12-14T00:00:31;98949.19;;;8.55;69.81
29215;BME280;16252;49.816;7.964;2023-12-14T00:02:56;98988.81;;;8.80;69.92
29215;BME280;16252;49.816;7.964;2023-12-14T00:05:21;98962.03;;;8.61;69.97
29215;BME280;16252;49.816;7.964;2023-12-14T00:07:47;98955.38;;;8.55;70.12
29215;BME280;16252;49.816;7.964;2023-12-14T00:10:12;98980.28;;;8.65;70.28
29215;BME280;16252;49.816;7.964;2023-12-14T00:12:38;98985.16;;;8.60;70.06
29215;BME280;16252;49.816;7.964;2023-12-14T00:15:04;98999.66;;;8.67;70.34
29215;BME280;16252;49.816;7.964;2023-12-14T00:17:29;98993.75;;;8.64;70.55
29215;BME280;16252;49.816;7.964;2023-12-14T00:19:54;98965.00;;;8.46;70.22
29215;BME280;16252;49.816;7.964;2023-12-14T00:22:19;98965.47;;;8.52;70.26
29215;BME280;16252;49.816;7.964;2023-12-14T00:24:45;98999.56;;;8.69;70.09
29215;BME280;16252;49.816;7.964;2023-12-14T00:27:10;99021.66;;;8.81;70.17
29215;BME280;16252;49.816;7.964;2023-12-14T00:29:35;99002.50;;;8.66;70.02
29215;BME280;16252;49.816;7.964;2023-12-14T00:32:00;99010.28;;;8.79;70.06
29215;BME280;16252;49.816;7.964;2023-12-14T00:34:26;98995.44;;;8.65;70.17
29215;BME280;16252;49.816;7.964;2023-12-14T00:36:51;98970.66;;;8.53;69.52
29215;BME280;16252;49.816;7.964;2023-12-14T00:39:16;98981.31;;;8.53;69.46
29215;BME280;16252;49.816;7.964;2023-12-14T00:41:41;99004.81;;;8.59;69.49
29215;BME280;16252;49.816;7.964;2023-12-14T00:44:07;99011.97;;;8.59;69.59
29215;BME280;16252;49.816;7.964;2023-12-14T00:46:32;99010.91;;;8.50;69.68
29215;BME280;16252;49.816;7.964;2023-12-14T00:48:57;98993.50;;;8.35;69.80
29215;BME280;16252;49.816;7.964;2023-12-14T00:51:22;99028.59;;;8.51;69.87
29215;BME280;16252;49.816;7.964;2023-12-14T00:53:48;99046.47;;;8.60;69.69
29215;BME280;16252;49.816;7.964;2023-12-14T00:56:13;99051.97;;;8.59;70.05
29215;BME280;16252;49.816;7.964;2023-12-14T00:58:38;99033.59;;;8.44;70.28
29215;BME280;16252;49.816;7.964;2023-12-14T01:01:04;99043.53;;;8.42;70.12
29215;BME280;16252;49.816;7.964;2023-12-14T01:03:29;99028.97;;;8.35;70.19
29215;BME280;16252;49.816;7.964;2023-12-14T01:05:55;99092.28;;;8.65;70.28
29215;BME280;16252;49.816;7.964;2023-12-14T01:08:20;99084.69;;;8.61;70.52
29215;BME280;16252;49.816;7.964;2023-12-14T01:10:45;99091.59;;;8.63;70.54
29215;BME280;16252;49.816;7.964;2023-12-14T01:13:11;99093.00;;;8.67;70.52
29215;BME280;16252;49.816;7.964;2023-12-14T01:15:36;99086.09;;;8.65;70.71
29215;BME280;16252;49.816;7.964;2023-12-14T01:18:02;99093.72;;;8.70;70.73
29215;BME280;16252;49.816;7.964;2023-12-14T01:20:27;99067.34;;;8.55;70.64
29215;BME280;16252;49.816;7.964;2023-12-14T01:22:52;99119.50;;;8.80;70.72
29215;BME280;16252;49.816;7.964;2023-12-14T01:25:18;99007.34;;;8.17;70.55
29215;BME280;16252;49.816;7.964;2023-12-14T01:27:43;99124.91;;;8.90;70.79
29215;BME280;16252;49.816;7.964;2023-12-14T01:30:09;99124.09;;;8.89;70.97
29215;BME280;16252;49.816;7.964;2023-12-14T01:32:34;99099.25;;;8.78;70.83
29215;BME280;16252;49.816;7.964;2023-12-14T01:34:59;99141.28;;;8.97;70.62
29215;BME280;16252;49.816;7.964;2023-12-14T01:37:24;99089.50;;;8.67;70.55
29215;BME280;16252;49.816;7.964;2023-12-14T01:39:50;99126.88;;;8.88;70.40
29215;BME280;16252;49.816;7.964;2023-12-14T01:42:15;99133.75;;;8.90;70.09
29215;BME280;16252;49.816;7.964;2023-12-14T01:44:40;99147.38;;;8.87;70.02
29215;BME280;16252;49.816;7.964;2023-12-14T01:47:06;99155.47;;;8.86;69.72
29215;BME280;16252;49.816;7.964;2023-12-14T01:49:31;99076.00;;;8.36;69.50
29215;BME280;16252;49.816;7.964;2023-12-14T01:51:56;99080.00;;;8.31;69.28
29215;BME280;16252;49.816;7.964;2023-12-14T01:54:21;99168.03;;;8.74;69.21
29215;BME280;16252;49.816;7.964;2023-12-14T01:56:47;99116.72;;;8.38;69.26
29215;BME280;16252;49.816;7.964;2023-12-14T01:59:13;99137.91;;;8.40;69.59
29215;BME280;16252;49.816;7.964;2023-12-14T02:01:42;99167.81;;;8.55;69.70
29215;BME280;16252;49.816;7.964;2023-12-14T02:04:08;99183.56;;;8.58;69.71
29215;BME280;16252;49.816;7.964;2023-12-14T02:06:34;99153.53;;;8.33;69.88
29215;BME280;16252;49.816;7.964;2023-12-14T02:09:00;99163.94;;;8.36;69.79
29215;BME280;16252;49.816;7.964;2023-12-14T02:11:25;99165.31;;;8.31;69.98
29215;BME280;16252;49.816;7.964;2023-12-14T02:13:50;99171.59;;;8.30;69.77
29215;BME280;16252;49.816;7.964;2023-12-14T02:16:16;99177.06;;;8.28;69.56
29215;BME280;16252;49.816;7.964;2023-12-14T02:18:41;99146.19;;;8.03;69.71
29215;BME280;16252;49.816;7.964;2023-12-14T02:21:06;99218.09;;;8.37;69.78
29215;BME280;16252;49.816;7.964;2023-12-14T02:23:32;99221.75;;;8.36;69.96
29215;BME280;16252;49.816;7.964;2023-12-14T02:25:57;99216.53;;;8.34;70.01
29215;BME280;16252;49.816;7.964;2023-12-14T02:28:22;99221.75;;;8.36;70.12
29215;BME280;16252;49.816;7.964;2023-12-14T02:30:48;99114.81;;;7.62;70.00
29215;BME280;16252;49.816;7.964;2023-12-14T02:33:13;99191.97;;;8.08;70.03
29215;BME280;16252;49.816;7.964;2023-12-14T02:35:38;99217.38;;;8.23;70.24
29215;BME280;16252;49.816;7.964;2023-12-14T02:38:03;99178.38;;;8.00;70.08
29215;BME280;16252;49.816;7.964;2023-12-14T02:40:29;99233.13;;;8.27;69.94
29215;BME280;16252;49.816;7.964;2023-12-14T02:42:54;99241.25;;;8.36;69.88
29215;BME280;16252;49.816;7.964;2023-12-14T02:45:19;99231.44;;;8.25;70.29
29215;BME280;16252;49.816;7.964;2023-12-14T02:47:45;99244.53;;;8.29;70.27
29215;BME280;16252;49.816;7.964;2023-12-14T02:50:12;99226.59;;;8.19;70.44
29215;BME280;16252;49.816;7.964;2023-12-14T02:52:38;99192.06;;;8.07;70.50
29215;BME280;16252;49.816;7.964;2023-12-14T02:55:03;99226.13;;;8.25;70.47
29215;BME280;16252;49.816;7.964;2023-12-14T02:57:29;99242.34;;;8.34;70.63
29215;BME280;16252;49.816;7.964;2023-12-14T02:59:54;99240.03;;;8.29;70.71
29215;BME280;16252;49.816;7.964;2023-12-14T03:02:19;99264.66;;;8.44;70.63
29215;BME280;16252;49.816;7.964;2023-12-14T03:04:44;99237.63;;;8.26;70.61
29215;BME280;16252;49.816;7.964;2023-12-14T03:07:10;99222.34;;;8.17;70.62
29215;BME280;16252;49.816;7.964;2023-12-14T03:09:35;99257.03;;;8.39;70.88
29215;BME280;16252;49.816;7.964;2023-12-14T03:12:04;99252.44;;;8.41;70.79
29215;BME280;16252;49.816;7.964;2023-12-14T03:14:32;99260.28;;;8.43;70.70
29215;BME280;16252;49.816;7.964;2023-12-14T03:16:57;99269.63;;;8.49;70.63
29215;BME280;16252;49.816;7.964;2023-12-14T03:19:23;99275.19;;;8.45;70.72
29215;BME280;16252;49.816;7.964;2023-12-14T03:21:48;99230.97;;;8.20;70.67
29215;BME280;16252;49.816;7.964;2023-12-14T03:24:13;99224.91;;;8.18;70.68
29215;BME280;16252;49.816;7.964;2023-12-14T03:26:38;99296.44;;;8.58;70.57
29215;BME280;16252;49.816;7.964;2023-12-14T03:29:04;99282.47;;;8.55;70.40
29215;BME280;16252;49.816;7.964;2023-12-14T03:31:29;99302.94;;;8.65;70.59
29215;BME280;16252;49.816;7.964;2023-12-14T03:33:54;99284.78;;;8.59;70.56
29215;BME280;16252;49.816;7.964;2023-12-14T03:36:19;99277.97;;;8.55;70.57
29215;BME280;16252;49.816;7.964;2023-12-14T03:38:45;99255.94;;;8.42;70.45
29215;BME280;16252;49.816;7.964;2023-12-14T03:41:10;99278.72;;;8.57;70.46
29215;BME280;16252;49.816;7.964;2023-12-14T03:43:35;99273.88;;;8.51;70.48
29215;BME280;16252;49.816;7.964;2023-12-14T03:46:00;99302.72;;;8.68;70.39
29215;BME280;16252;49.816;7.964;2023-12-14T03:48:26;99270.22;;;8.52;70.34
29215;BME280;16252;49.816;7.964;2023-12-14T03:50:51;99211.94;;;8.14;70.14
29215;BME280;16252;49.816;7.964;2023-12-14T03:53:16;99307.91;;;8.70;69.84
29215;BME280;16252;49.816;7.964;2023-12-14T03:55:41;99303.34;;;8.61;69.83
29215;BME280;16252;49.816;7.964;2023-12-14T03:58:07;99262.81;;;8.33;69.52
29215;BME280;16252;49.816;7.964;2023-12-14T04:00:32;99295.56;;;8.46;69.68
29215;BME280;16252;49.816;7.964;2023-12-14T04:02:57;99178.84;;;7.71;69.57
29215;BME280;16252;49.816;7.964;2023-12-14T04:05:23;99327.06;;;8.53;69.61
29215;BME280;16252;49.816;7.964;2023-12-14T04:07:48;99316.25;;;8.43;69.62
29215;BME280;16252;49.816;7.964;2023-12-14T04:10:13;99252.00;;;8.01;69.65
29215;BME280;16252;49.816;7.964;2023-12-14T04:12:39;99355.94;;;8.59;69.88
29215;BME280;16252;49.816;7.964;2023-12-14T04:15:06;99360.41;;;8.58;70.19
29215;BME280;16252;49.816;7.964;2023-12-14T04:17:32;99333.56;;;8.37;70.21
29215;BME280;16252;49.816;7.964;2023-12-14T04:19:58;99305.94;;;8.16;70.27
29215;BME280;16252;49.816;7.964;2023-12-14T04:22:23;99329.31;;;8.23;70.32
29215;BME280;16252;49.816;7.964;2023-12-14T04:24:48;99376.03;;;8.52;70.28
29215;BME280;16252;49.816;7.964;2023-12-14T04:27:15;99383.91;;;8.53;70.41
29215;BME280;16252;49.816;7.964;2023-12-14T04:29:40;99357.44;;;8.39;70.38
29215;BME280;16252;49.816;7.964;2023-12-14T04:32:05;99345.56;;;8.32;70.33
29215;BME280;16252;49.816;7.964;2023-12-14T04:34:31;99398.44;;;8.60;70.39
29215;BME280;16252;49.816;7.964;2023-12-14T04:36:56;99364.38;;;8.41;70.11
29215;BME280;16252;49.816;7.964;2023-12-14T04:39:23;99298.50;;;7.97;70.35
29215;BME280;16252;49.816;7.964;2023-12-14T04:41:50;99405.00;;;8.56;70.14
29215;BME280;16252;49.816;7.964;2023-12-14T04:44:15;99369.06;;;8.38;70.43
29215;BME280;16252;49.816;7.964;2023-12-14T04:46:40;99407.19;;;8.62;70.42
29215;BME280;16252;49.816;7.964;2023-12-14T04:49:06;99398.09;;;8.54;70.40
29215;BME280;16252;49.816;7.964;2023-12-14T04:51:31;99355.97;;;8.23;70.62
29215;BME280;16252;49.816;7.964;2023-12-14T04:53:57;99391.41;;;8.48;70.44
29215;BME280;16252;49.816;7.964;2023-12-14T04:56:22;99386.44;;;8.43;70.58
29215;BME280;16252;49.816;7.964;2023-12-14T04:58:47;99351.38;;;8.25;70.46
29215;BME280;16252;49.816;7.964;2023-12-14T05:01:13;99414.81;;;8.56;70.39
29215;BME280;16252;49.816;7.964;2023-12-14T05:03:38;99410.31;;;8.45;70.06
29215;BME280;16252;49.816;7.964;2023-12-14T05:06:03;99404.13;;;8.44;70.16
29215;BME280;16252;49.816;7.964;2023-12-14T05:08:29;99422.78;;;8.44;70.00
29215;BME280;16252;49.816;7.964;2023-12-14T05:10:54;99441.09;;;8.49;70.10
29215;BME280;16252;49.816;7.964;2023-12-14T05:13:19;99441.72;;;8.53;70.30
29215;BME280;16252;49.816;7.964;2023-12-14T05:15:45;99422.84;;;8.32;70.42
29215;BME280;16252;49.816;7.964;2023-12-14T05:18:10;99396.63;;;8.14;70.68
29215;BME280;16252;49.816;7.964;2023-12-14T05:20:35;99437.41;;;8.39;70.75
29215;BME280;16252;49.816;7.964;2023-12-14T05:23:01;99448.47;;;8.45;70.76
29215;BME280;16252;49.816;7.964;2023-12-14T05:25:26;99437.53;;;8.37;70.74
29215;BME280;16252;49.816;7.964;2023-12-14T05:27:52;99425.25;;;8.23;70.93
29215;BME280;16252;49.816;7.964;2023-12-14T05:30:17;99481.59;;;8.54;70.74
29215;BME280;16252;49.816;7.964;2023-12-14T05:32:43;99478.78;;;8.56;70.54
29215;BME280;16252;49.816;7.964;2023-12-14T05:35:08;99453.50;;;8.37;70.20
29215;BME280;16252;49.816;7.964;2023-12-14T05:37:34;99471.75;;;8.43;70.00
29215;BME280;16252;49.816;7.964;2023-12-14T05:40:00;99439.41;;;8.24;69.97
29215;BME280;16252;49.816;7.964;2023-12-14T05:42:25;99485.78;;;8.45;69.76
29215;BME280;16252;49.816;7.964;2023-12-14T05:44:50;99467.94;;;8.35;69.94
29215;BME280;16252;49.816;7.964;2023-12-14T05:47:15;99477.75;;;8.34;70.02
29215;BME280;16252;49.816;7.964;2023-12-14T05:49:44;99496.59;;;8.44;70.31
29215;BME280;16252;49.816;7.964;2023-12-14T05:52:10;99488.16;;;8.37;70.42
29215;BME280;16252;49.816;7.964;2023-12-14T05:54:36;99469.81;;;8.21;70.37
29215;BME280;16252;49.816;7.964;2023-12-14T05:57:01;99485.34;;;8.28;70.19
29215;BME280;16252;49.816;7.964;2023-12-14T05:59:28;99506.81;;;8.37;70.21
29215;BME280;16252;49.816;7.964;2023-12-14T06:01:57;99530.69;;;8.52;70.26
29215;BME280;16252;49.816;7.964;2023-12-14T06:04:23;99508.25;;;8.30;70.33
29215;BME280;16252;49.816;7.964;2023-12-14T06:06:48;99499.38;;;8.18;70.40
29215;BME280;16252;49.816;7.964;2023-12-14T06:09:13;99522.94;;;8.36;70.67
29215;BME280;16252;49.816;7.964;2023-12-14T06:11:39;99463.78;;;7.95;70.71
29215;BME280;16252;49.816;7.964;2023-12-14T06:14:04;99524.38;;;8.29;70.90
29215;BME280;16252;49.816;7.964;2023-12-14T06:16:29;99468.88;;;7.98;70.96
29215;BME280;16252;49.816;7.964;2023-12-14T06:18:54;99533.63;;;8.36;71.07
29215;BME280;16252;49.816;7.964;2023-12-14T06:21:20;99520.34;;;8.23;71.01
29215;BME280;16252;49.816;7.964;2023-12-14T06:23:45;99568.84;;;8.52;71.26
29215;BME280;16252;49.816;7.964;2023-12-14T06:26:11;99526.63;;;8.22;71.13
29215;BME280;16252;49.816;7.964;2023-12-14T06:28:36;99529.69;;;8.29;71.32
29215;BME280;16252;49.816;7.964;2023-12-14T06:31:01;99552.81;;;8.41;71.28
29215;BME280;16252;49.816;7.964;2023-12-14T06:33:27;99558.84;;;8.43;71.21
29215;BME280;16252;49.816;7.964;2023-12-14T06:35:52;99587.06;;;8.58;71.20
29215;BME280;16252;49.816;7.964;2023-12-14T06:38:17;99568.25;;;8.49;71.03
29215;BME280;16252;49.816;7.964;2023-12-14T06:40:42;99575.78;;;8.55;71.14
29215;BME280;16252;49.816;7.964;2023-12-14T06:43:08;99548.63;;;8.37;71.10
29215;BME280;16252;49.816;7.964;2023-12-14T06:45:36;99493.88;;;8.09;71.22
29215;BME280;16252;49.816;7.964;2023-12-14T06:48:02;99601.63;;;8.65;71.32
29215;BME280;16252;49.816;7.964;2023-12-14T06:50:28;99600.69;;;8.66;71.44
29215;BME280;16252;49.816;7.964;2023-12-14T06:52:53;99584.63;;;8.55;71.46
29215;BME280;16252;49.816;7.964;2023-12-14T06:55:18;99613.69;;;8.71;71.45
29215;BME280;16252;49.816;7.964;2023-12-14T06:57:44;99590.78;;;8.56;71.69
29215;BME280;16252;49.816;7.964;2023-12-14T07:00:12;99624.97;;;8.75;71.69
29215;BME280;16252;49.816;7.964;2023-12-14T07:02:38;99618.88;;;8.73;71.75
29215;BME280;16252;49.816;7.964;2023-12-14T07:05:03;99605.88;;;8.68;71.73
29215;BME280;16252;49.816;7.964;2023-12-14T07:07:28;99598.25;;;8.63;71.68
29215;BME280;16252;49.816;7.964;2023-12-14T07:09:54;99592.69;;;8.66;71.68
29215;BME280;16252;49.816;7.964;2023-12-14T07:12:19;99644.41;;;8.88;71.56
29215;BME280;16252;49.816;7.964;2023-12-14T07:14:44;99648.09;;;8.98;71.73
29215;BME280;16252;49.816;7.964;2023-12-14T07:17:10;99651.00;;;8.95;71.82
29215;BME280;16252;49.816;7.964;2023-12-14T07:19:35;99656.94;;;8.99;71.75
29215;BME280;16252;49.816;7.964;2023-12-14T07:22:01;99646.22;;;8.87;71.52
29215;BME280;16252;49.816;7.964;2023-12-14T07:24:26;99665.06;;;8.97;71.76
29215;BME280;16252;49.816;7.964;2023-12-14T07:26:51;99662.50;;;8.96;71.73
29215;BME280;16252;49.816;7.964;2023-12-14T07:29:16;99676.66;;;9.09;71.92
29215;BME280;16252;49.816;7.964;2023-12-14T07:31:42;99676.75;;;9.07;71.96
29215;BME280;16252;49.816;7.964;2023-12-14T07:34:07;99658.88;;;8.97;71.59
29215;BME280;16252;49.816;7.964;2023-12-14T07:36:32;99683.59;;;9.11;71.89
29215;BME280;16252;49.816;7.964;2023-12-14T07:38:57;99675.28;;;9.03;71.63
29215;BME280;16252;49.816;7.964;2023-12-14T07:41:25;99677.84;;;9.05;71.90
29215;BME280;16252;49.816;7.964;2023-12-14T07:43:54;99703.47;;;9.19;72.00
29215;BME280;16252;49.816;7.964;2023-12-14T07:46:20;99669.56;;;8.97;71.91
29215;BME280;16252;49.816;7.964;2023-12-14T07:48:45;99714.66;;;9.24;72.14
29215;BME280;16252;49.816;7.964;2023-12-14T07:51:10;99711.63;;;9.17;72.10
29215;BME280;16252;49.816;7.964;2023-12-14T07:53:35;99717.47;;;9.22;71.88
29215;BME280;16252;49.816;7.964;2023-12-14T07:56:02;99716.72;;;9.20;71.89
29215;BME280;16252;49.816;7.964;2023-12-14T07:58:28;99741.53;;;9.33;72.01
29215;BME280;16252;49.816;7.964;2023-12-14T08:00:53;99721.22;;;9.20;71.84
29215;BME280;16252;49.816;7.964;2023-12-14T08:03:18;99761.34;;;9.42;71.97
29215;BME280;16252;49.816;7.964;2023-12-14T08:05:43;99749.94;;;9.40;71.78
29215;BME280;16252;49.816;7.964;2023-12-14T08:08:09;99749.78;;;9.42;71.93
29215;BME280;16252;49.816;7.964;2023-12-14T08:10:34;99747.13;;;9.42;71.96
29215;BME280;16252;49.816;7.964;2023-12-14T08:12:59;99762.38;;;9.52;71.93
29215;BME280;16252;49.816;7.964;2023-12-14T08:15:25;99768.88;;;9.48;71.67
29215;BME280;16252;49.816;7.964;2023-12-14T08:17:50;99766.47;;;9.45;71.29
29215;BME280;16252;49.816;7.964;2023-12-14T08:20:15;99778.72;;;9.48;71.40
29215;BME280;16252;49.816;7.964;2023-12-14T08:22:40;99765.09;;;9.40;71.49
29215;BME280;16252;49.816;7.964;2023-12-14T08:25:11;99771.41;;;9.39;71.37
29215;BME280;16252;49.816;7.964;2023-12-14T08:27:36;99794.63;;;9.49;71.45
29215;BME280;16252;49.816;7.964;2023-12-14T08:30:01;99812.63;;;9.59;71.43
29215;BME280;16252;49.816;7.964;2023-12-14T08:32:27;99807.53;;;9.55;71.37
29215;BME280;16252;49.816;7.964;2023-12-14T08:34:52;99812.78;;;9.57;71.53
29215;BME280;16252;49.816;7.964;2023-12-14T08:37:18;99817.22;;;9.57;71.57
29215;BME280;16252;49.816;7.964;2023-12-14T08:39:43;99818.97;;;9.58;71.70
29215;BME280;16252;49.816;7.964;2023-12-14T08:42:08;99819.69;;;9.60;71.72
29215;BME280;16252;49.816;7.964;2023-12-14T08:44:38;99796.44;;;9.49;71.79
29215;BME280;16252;49.816;7.964;2023-12-14T08:47:04;99818.63;;;9.62;71.80
29215;BME280;16252;49.816;7.964;2023-12-14T08:49:30;99835.75;;;9.71;71.84
29215;BME280;16252;49.816;7.964;2023-12-14T08:51:55;99851.78;;;9.71;71.71
29215;BME280;16252;49.816;7.964;2023-12-14T08:54:21;99815.97;;;9.49;71.49
29215;BME280;16252;49.816;7.964;2023-12-14T08:56:46;99874.28;;;9.80;71.62
29215;BME280;16252;49.816;7.964;2023-12-14T08:59:11;99861.63;;;9.70;71.59
29215;BME280;16252;49.816;7.964;2023-12-14T09:01:36;99854.19;;;9.63;71.48
29215;BME280;16252;49.816;7.964;2023-12-14T09:04:02;99885.72;;;9.82;71.56
29215;BME280;16252;49.816;7.964;2023-12-14T09:06:27;99859.91;;;9.69;71.79
29215;BME280;16252;49.816;7.964;2023-12-14T09:08:52;99873.78;;;9.74;71.54
29215;BME280;16252;49.816;7.964;2023-12-14T09:11:17;99877.31;;;9.75;71.59
29215;BME280;16252;49.816;7.964;2023-12-14T09:13:43;99907.16;;;9.93;71.63
29215;BME280;16252;49.816;7.964;2023-12-14T09:16:08;99895.56;;;9.81;71.81
29215;BME280;16252;49.816;7.964;2023-12-14T09:18:33;99868.44;;;9.74;71.83
29215;BME280;16252;49.816;7.964;2023-12-14T09:20:59;99883.03;;;9.82;71.77
29215;BME280;16252;49.816;7.964;2023-12-14T09:23:24;99910.44;;;9.96;72.08
29215;BME280;16252;49.816;7.964;2023-12-14T09:25:49;99916.19;;;10.03;71.87
29215;BME280;16252;49.816;7.964;2023-12-14T09:28:15;99935.16;;;10.11;71.86
29215;BME280;16252;49.816;7.964;2023-12-14T09:30:40;99929.22;;;10.08;72.03
29215;BME280;16252;49.816;7.964;2023-12-14T09:33:05;99937.72;;;10.13;72.02
29215;BME280;16252;49.816;7.964;2023-12-14T09:35:33;99950.63;;;10.19;72.15
29215;BME280;16252;49.816;7.964;2023-12-14T09:37:58;99929.72;;;10.13;72.08
29215;BME280;16252;49.816;7.964;2023-12-14T09:40:24;99949.19;;;10.26;71.98
29215;BME280;16252;49.816;7.964;2023-12-14T09:42:49;99946.53;;;10.26;72.32
29215;BME280;16252;49.816;7.964;2023-12-14T09:45:16;99923.03;;;10.18;72.18
29215;BME280;16252;49.816;7.964;2023-12-14T09:47:42;99925.47;;;10.22;71.94
29215;BME280;16252;49.816;7.964;2023-12-14T09:50:08;99962.19;;;10.44;71.71
29215;BME280;16252;49.816;7.964;2023-12-14T09:52:33;99950.09;;;10.38;71.85
29215;BME280;16252;49.816;7.964;2023-12-14T09:54:59;99974.47;;;10.57;71.62
29215;BME280;16252;49.816;7.964;2023-12-14T09:57:25;99973.53;;;10.58;71.72
29215;BME280;16252;49.816;7.964;2023-12-14T09:59:55;99947.13;;;10.54;71.72
29215;BME280;16252;49.816;7.964;2023-12-14T10:02:25;99985.75;;;10.96;71.22
29215;BME280;16252;49.816;7.964;2023-12-14T10:04:51;99967.47;;;10.79;70.93
29215;BME280;16252;49.816;7.964;2023-12-14T10:07:18;99994.16;;;10.92;71.08
29215;BME280;16252;49.816;7.964;2023-12-14T10:09:43;99998.41;;;10.94;70.95
29215;BME280;16252;49.816;7.964;2023-12-14T10:12:09;99979.78;;;10.81;70.80
29215;BME280;16252;49.816;7.964;2023-12-14T10:14:35;99986.34;;;10.89;70.61
29215;BME280;16252;49.816;7.964;2023-12-14T10:17:33;100000.84;;;11.09;70.42
29215;BME280;16252;49.816;7.964;2023-12-14T10:19:59;99964.91;;;10.77;70.57
29215;BME280;16252;49.816;7.964;2023-12-14T10:22:28;100002.19;;;11.03;70.28
29215;BME280;16252;49.816;7.964;2023-12-14T10:24:53;99993.28;;;10.91;70.05
29215;BME280;16252;49.816;7.964;2023-12-14T10:27:19;100002.44;;;11.00;70.10
29215;BME280;16252;49.816;7.964;2023-12-14T10:29:45;99997.31;;;10.97;70.08
29215;BME280;16252;49.816;7.964;2023-12-14T10:32:11;100017.16;;;11.05;70.28
29215;BME280;16252;49.816;7.964;2023-12-14T10:34:37;100024.47;;;11.15;70.20
29215;BME280;16252;49.816;7.964;2023-12-14T10:37:06;99975.28;;;10.93;69.73
29215;BME280;16252;49.816;7.964;2023-12-14T10:39:34;100010.09;;;11.16;70.03
29215;BME280;16252;49.816;7.964;2023-12-14T10:42:02;100010.00;;;11.17;69.75
29215;BME280;16252;49.816;7.964;2023-12-14T10:44:30;100016.56;;;11.24;69.69
29215;BME280;16252;49.816;7.964;2023-12-14T10:46:59;100012.16;;;11.23;69.56
29215;BME280;16252;49.816;7.964;2023-12-14T10:49:25;99973.81;;;11.00;69.68
29215;BME280;16252;49.816;7.964;2023-12-14T10:51:52;99987.72;;;11.17;69.42
29215;BME280;16252;49.816;7.964;2023-12-14T10:54:21;100019.34;;;11.34;69.45
29215;BME280;16252;49.816;7.964;2023-12-14T10:56:46;100015.22;;;11.30;69.50
29215;BME280;16252;49.816;7.964;2023-12-14T10:59:15;100030.34;;;11.42;69.13
29215;BME280;16252;49.816;7.964;2023-12-14T11:01:40;100025.22;;;11.28;69.12
29215;BME280;16252;49.816;7.964;2023-12-14T11:04:06;100034.47;;;11.35;68.91
29215;BME280;16252;49.816;7.964;2023-12-14T11:06:36;100056.03;;;11.45;68.31
29215;BME280;16252;49.816;7.964;2023-12-14T11:09:07;100027.16;;;11.37;68.27
29215;BME280;16252;49.816;7.964;2023-12-14T11:11:43;100071.97;;;11.69;68.79
29215;BME280;16252;49.816;7.964;2023-12-14T11:14:12;100058.56;;;11.46;68.86
29215;BME280;16252;49.816;7.964;2023-12-14T11:16:39;100046.63;;;11.39;68.73
29215;BME280;16252;49.816;7.964;2023-12-14T11:21:48;100036.41;;;11.33;68.52
29215;BME280;16252;49.816;7.964;2023-12-14T11:24:13;100054.06;;;11.36;68.62
29215;BME280;16252;49.816;7.964;2023-12-14T11:26:40;100072.84;;;11.47;68.44
29215;BME280;16252;49.816;7.964;2023-12-14T11:29:06;100062.59;;;11.41;68.13
29215;BME280;16252;49.816;7.964;2023-12-14T11:31:31;100080.63;;;11.50;68.26
29215;BME280;16252;49.816;7.964;2023-12-14T11:33:58;100078.19;;;11.47;68.21
29215;BME280;16252;49.816;7.964;2023-12-14T11:36:26;100087.94;;;11.48;68.29
29215;BME280;16252;49.816;7.964;2023-12-14T11:38:51;100087.59;;;11.53;68.24
29215;BME280;16252;49.816;7.964;2023-12-14T11:41:20;100098.06;;;11.56;67.87
29215;BME280;16252;49.816;7.964;2023-12-14T11:43:45;100068.19;;;11.38;67.67
29215;BME280;16252;49.816;7.964;2023-12-14T11:46:11;100111.44;;;11.67;67.45
29215;BME280;16252;49.816;7.964;2023-12-14T11:48:36;100087.69;;;11.51;67.16
29215;BME280;16252;49.816;7.964;2023-12-14T11:51:02;100069.78;;;11.40;67.21
29215;BME280;16252;49.816;7.964;2023-12-14T11:53:29;100105.84;;;11.59;66.45
29215;BME280;16252;49.816;7.964;2023-12-14T11:55:55;100114.50;;;11.62;66.68
29215;BME280;16252;49.816;7.964;2023-12-14T11:58:20;100104.50;;;11.53;66.92
29215;BME280;16252;49.816;7.964;2023-12-14T12:00:45;100111.56;;;11.54;66.89
29215;BME280;16252;49.816;7.964;2023-12-14T12:08:05;100099.25;;;11.52;66.33
29215;BME280;16252;49.816;7.964;2023-12-14T12:10:30;100090.63;;;11.48;66.26
29215;BME280;16252;49.816;7.964;2023-12-14T12:13:04;100124.63;;;11.70;65.78
29215;BME280;16252;49.816;7.964;2023-12-14T12:15:33;100117.69;;;11.67;66.44
29215;BME280;16252;49.816;7.964;2023-12-14T12:18:02;100089.38;;;11.41;65.97
29215;BME280;16252;49.816;7.964;2023-12-14T12:20:27;100116.56;;;11.59;65.65
29215;BME280;16252;49.816;7.964;2023-12-14T12:22:52;100118.63;;;11.55;65.70
29215;BME280;16252;49.816;7.964;2023-12-14T12:25:17;100121.56;;;11.52;65.56
29215;BME280;16252;49.816;7.964;2023-12-14T12:27:43;100133.47;;;11.59;65.56
29215;BME280;16252;49.816;7.964;2023-12-14T12:30:09;100113.25;;;11.44;65.44
29215;BME280;16252;49.816;7.964;2023-12-14T12:32:35;100130.56;;;11.51;65.50
29215;BME280;16252;49.816;7.964;2023-12-14T12:35:00;100122.16;;;11.44;65.11
29215;BME280;16252;49.816;7.964;2023-12-14T12:37:25;100133.25;;;11.51;64.94
29215;BME280;16252;49.816;7.964;2023-12-14T12:39:51;100131.25;;;11.42;64.89
29215;BME280;16252;49.816;7.964;2023-12-14T12:42:16;100092.75;;;11.09;64.74
29215;BME280;16252;49.816;7.964;2023-12-14T12:44:41;100113.34;;;11.20;65.17
29215;BME280;16252;49.816;7.964;2023-12-14T12:47:06;100135.28;;;11.25;65.10
29215;BME280;16252;49.816;7.964;2023-12-14T12:49:32;100132.19;;;11.18;65.21
29215;BME280;16252;49.816;7.964;2023-12-14T12:51:57;100138.53;;;11.17;65.16
29215;BME280;16252;49.816;7.964;2023-12-14T12:54:22;100128.16;;;11.13;65.07
29215;BME280;16252;49.816;7.964;2023-12-14T12:56:48;100142.91;;;11.18;65.09
29215;BME280;16252;49.816;7.964;2023-12-14T12:59:13;100138.41;;;11.19;65.63
29215;BME280;16252;49.816;7.964;2023-12-14T13:01:39;100131.19;;;11.08;65.28
29215;BME280;16252;49.816;7.964;2023-12-14T13:04:17;100158.28;;;11.27;64.89